메인 페이지
METAR-TAF:

METAR-TAF

공항 :

라로통가 국제공항

Rarotonga, 쿡 제도

위도: 21-12S, 경도: 159-49W, 고도: 7m

현재 날씨관측

예보는 8분 전, 03:00시(UTC)에 발표되었습니다.
8kt
온도 27°C
습도 79%
기압 1014 hPa
시정 10km 이상
고도 2000ft 상공 구름 많음

METAR: NCRG 210300Z 08008KT 9999 BKN020 27/23 Q1014

시각: 17:08 (03:08 UTC)

예보

예보는 4 시간 4분 전, 23:04시(UTC)에 발표되었습니다.
예보 대상 시간: 21일 00시부터 21일 24시까지 (UTC)
동북동8kt
시정 10km 이상
고도 1800ft 상공 구름 보통

TAF: NCRG 202304Z 2100/2124 06008KT 9999 SCT018

4,000개 이상의 공항 관측 자료 및 예보 (METAR 및 TAF 보고).

지도상에서 검색 가능한 기상관측소가 노란 점과 빨간 점으로 표시되어 있습니다.

기상관측소 명을 보려면 표시 위로 마우스를 이동하세요.

날씨 관측과 예보를 보려면 클릭하세요.

지도 변경 : 확대하려면 엑스 표시가 있는 녹색 버튼, 축소하려면 빼기 표시가 있는 녹색 버튼, 다음 페이지의 지도를 보려면 녹색 화살표를 클릭하세요.


METAR-TAF: